Time;durP1;ratioP1;P1;durP2;ratioP2;P2;SDS_P1;SDS_P2;PMS_P1;PMS_P2;Temp;Humidity;BMP_temperature;BMP_pressure;BME280_temperature;BME280_humidity;BME280_pressure;Samples;Min_cycle;Max_cycle;Signal;HPM_P1;HPM_P2
2021/12/31 00:02:28;;;;;;;;;70.00;54.33;;;;;4.94;100.00;100067.94;6314103;20;3628745;-44
2021/12/31 00:04:57;;;;;;;;;68.00;53.33;;;;;4.97;100.00;100066.97;6314167;20;3620040;-44
2021/12/31 00:07:26;;;;;;;;;62.00;50.50;;;;;5.06;100.00;100067.56;6312500;20;2851311;-44
2021/12/31 00:10:00;;;;;;;;;71.33;54.67;;;;;5.03;100.00;100064.13;6277560;20;3622099;-44
2021/12/31 00:12:31;;;;;;;;;66.33;53.67;;;;;5.09;100.00;100060.41;6313922;20;2883731;-44
2021/12/31 00:15:00;;;;;;;;;60.00;48.00;;;;;5.17;100.00;100061.88;6313075;20;2726307;-44
2021/12/31 00:17:29;;;;;;;;;62.50;50.00;;;;;5.16;100.00;100061.91;6309650;20;2856572;-45
2021/12/31 00:20:03;;;;;;;;;67.33;50.33;;;;;5.15;100.00;100047.75;6279703;20;3633689;-44
2021/12/31 00:25:13;;;;;;;;;53.00;45.00;;;;;5.15;100.00;100066.38;6281355;20;2869192;-45
2021/12/31 00:27:42;;;;;;;;;66.67;50.00;;;;;5.15;100.00;100066.38;6277280;20;2500303;-44
2021/12/31 00:30:12;;;;;;;;;68.33;50.67;;;;;5.21;100.00;100062.63;6310499;20;3631531;-43
2021/12/31 00:32:42;;;;;;;;;60.33;48.33;;;;;5.18;100.00;100068.06;6310453;20;2871191;-45
2021/12/31 00:35:12;;;;;;;;;56.67;45.67;;;;;5.16;100.00;100067.25;6312902;20;2869024;-43
2021/12/31 00:37:42;;;;;;;;;57.33;43.33;;;;;5.16;100.00;100064.56;6309466;20;3628353;-45
2021/12/31 00:40:16;;;;;;;;;65.33;45.33;;;;;5.21;100.00;100071.50;6307910;20;3628344;-43
2021/12/31 00:42:48;;;;;;;;;72.33;51.67;;;;;5.34;100.00;100074.59;6310206;20;3646076;-45
2021/12/31 00:45:24;;;;;;;;;63.33;51.33;;;;;5.29;100.00;100071.22;6308591;20;3625201;-44
2021/12/31 00:47:55;;;;;;;;;64.33;50.00;;;;;5.05;100.00;100070.25;6312644;20;3639817;-45
2021/12/31 00:50:24;;;;;;;;;63.00;51.33;;;;;5.15;100.00;100070.84;6309874;20;2860698;-43
2021/12/31 00:52:54;;;;;;;;;67.00;53.00;;;;;5.07;100.00;100068.41;6310865;20;3628523;-44
2021/12/31 00:55:23;;;;;;;;;71.33;52.33;;;;;5.14;100.00;100074.44;6309055;20;3627326;-47
2021/12/31 00:57:53;;;;;;;;;72.00;54.67;;;;;5.04;100.00;100079.19;6309989;20;3632580;-44
2021/12/31 01:00:23;;;;;;;;;69.33;53.00;;;;;5.02;100.00;100081.00;6312818;20;3639872;-43
2021/12/31 01:02:53;;;;;;;;;72.33;57.33;;;;;4.91;100.00;100076.03;6316441;20;3631522;-43
2021/12/31 01:05:23;;;;;;;;;72.33;55.33;;;;;4.78;100.00;100072.88;6316714;20;3639981;-43
2021/12/31 01:07:52;;;;;;;;;74.67;55.67;;;;;4.69;100.00;100073.19;6316087;20;3629440;-43
2021/12/31 01:10:25;;;;;;;;;71.67;54.33;;;;;4.71;100.00;100076.66;6316113;20;3635754;-43
2021/12/31 01:12:55;;;;;;;;;75.67;57.00;;;;;4.68;100.00;100067.91;6314823;20;3642986;-44
2021/12/31 01:15:41;;;;;;;;;77.00;57.00;;;;;4.69;100.00;100067.00;6315847;20;3640875;-43
2021/12/31 01:20:40;;;;;;;;;78.67;59.67;;;;;4.62;100.00;100061.88;6316213;20;3637719;-44
2021/12/31 01:23:10;;;;;;;;;71.67;54.67;;;;;4.71;100.00;100052.72;6316681;20;3620171;-43
2021/12/31 01:25:40;;;;;;;;;68.33;51.00;;;;;4.48;100.00;100064.09;6316148;20;3632515;-43
2021/12/31 01:28:10;;;;;;;;;70.33;54.00;;;;;4.58;100.00;100060.22;6315995;20;2883860;-43
2021/12/31 01:30:39;;;;;;;;;71.33;53.00;;;;;4.96;100.00;100060.78;6312521;20;3639943;-44
2021/12/31 01:33:09;;;;;;;;;70.33;51.67;;;;;4.96;100.00;100063.44;6315945;20;3621195;-44
2021/12/31 01:35:39;;;;;;;;;68.67;52.67;;;;;5.03;100.00;100051.69;6316340;20;3634592;-43
2021/12/31 01:38:08;;;;;;;;;68.00;49.67;;;;;5.18;100.00;100052.09;6316318;20;3638857;-43
2021/12/31 01:40:38;;;;;;;;;62.33;51.00;;;;;4.99;100.00;100055.38;6316206;20;3619131;-45
2021/12/31 01:43:10;;;;;;;;;59.67;49.67;;;;;5.11;100.00;100056.78;6317735;20;2854467;-43
2021/12/31 01:45:44;;;;;;;;;60.00;49.00;;;;;5.02;100.00;100068.56;6314354;20;2855474;-44
2021/12/31 01:48:24;;;;;;;;;66.67;52.00;;;;;5.32;100.00;100071.16;6316859;20;3630526;-44
2021/12/31 01:50:54;;;;;;;;;60.33;46.67;;;;;5.22;100.00;100067.06;6314989;20;2872252;-43
2021/12/31 01:53:26;;;;;;;;;71.67;54.00;;;;;5.36;100.00;100066.59;6315341;20;3637877;-44
2021/12/31 01:56:01;;;;;;;;;69.33;53.00;;;;;5.27;100.00;100065.97;6314872;20;3623192;-43
2021/12/31 01:58:32;;;;;;;;;63.00;50.33;;;;;5.12;100.00;100066.47;6310782;20;3608577;-44
2021/12/31 02:01:04;;;;;;;;;70.33;52.67;;;;;5.27;100.00;100060.66;6312867;20;3647094;-45
2021/12/31 02:03:36;;;;;;;;;65.67;52.00;;;;;5.32;100.00;100047.19;6312592;20;3621142;-44
2021/12/31 02:06:06;;;;;;;;;67.67;51.00;;;;;5.31;100.00;100056.06;6317151;20;3636842;-44
2021/12/31 02:08:36;;;;;;;;;60.33;46.67;;;;;5.30;100.00;100056.16;6313357;20;3609631;-44
2021/12/31 02:11:05;;;;;;;;;69.67;52.67;;;;;5.35;100.00;100052.41;6313383;20;3643586;-43
2021/12/31 02:13:36;;;;;;;;;64.33;51.33;;;;;5.37;100.00;100045.25;6313041;20;3623575;-44
2021/12/31 02:16:06;;;;;;;;;69.33;53.33;;;;;5.37;100.00;100045.25;6314236;20;3628802;-45
2021/12/31 02:18:35;;;;;;;;;48.50;42.00;;;;;5.36;100.00;100032.84;6312077;20;2837792;-43
2021/12/31 02:21:10;;;;;;;;;76.33;57.00;;;;;5.39;100.00;100032.72;6279524;20;3645083;-43
2021/12/31 02:23:45;;;;;;;;;67.67;49.33;;;;;5.40;100.00;100029.16;6314528;20;3646545;-44
2021/12/31 02:26:14;;;;;;;;;68.67;52.33;;;;;5.47;100.00;100028.00;6314110;20;3616938;-43
2021/12/31 02:28:44;;;;;;;;;64.00;51.00;;;;;5.42;100.00;100026.41;6315610;20;3613899;-44
2021/12/31 02:31:14;;;;;;;;;60.67;48.00;;;;;5.46;100.00;100028.94;6312069;20;2872389;-44
2021/12/31 02:33:43;;;;;;;;;72.33;52.00;;;;;5.40;100.00;100029.16;6312187;20;3649206;-44
2021/12/31 02:36:13;;;;;;;;;72.00;55.00;;;;;5.44;100.00;100036.09;6314540;20;3631458;-43
2021/12/31 02:38:44;;;;;;;;;68.00;52.67;;;;;5.38;100.00;100041.66;6312406;20;3636823;-44
2021/12/31 02:41:13;;;;;;;;;66.33;53.33;;;;;5.55;100.00;100049.03;6312764;20;2863811;-45
2021/12/31 02:43:43;;;;;;;;;69.00;53.33;;;;;5.50;100.00;100043.88;6314543;20;3640870;-43
2021/12/31 02:46:13;;;;;;;;;71.00;53.00;;;;;5.54;100.00;100041.97;6315554;20;3633556;-43
2021/12/31 02:48:43;;;;;;;;;68.00;53.00;;;;;5.54;100.00;100039.31;6315542;20;3622122;-43
2021/12/31 02:51:13;;;;;;;;;67.67;53.33;;;;;5.67;100.00;100043.28;6311174;20;3611665;-44
2021/12/31 02:53:42;;;;;;;;;67.00;52.00;;;;;5.53;100.00;100026.03;6313406;20;2755467;-44
2021/12/31 02:56:16;;;;;;;;;61.00;49.67;;;;;5.76;100.00;100023.41;6310928;20;3614801;-44
2021/12/31 02:58:45;;;;;;;;;62.50;48.50;;;;;5.64;100.00;100019.41;6314572;20;2864872;-44
2021/12/31 03:01:15;;;;;;;;;69.33;49.00;;;;;5.65;100.00;100017.63;6279931;20;2876490;-43
2021/12/31 03:03:48;;;;;;;;;66.33;53.33;;;;;5.72;100.00;100024.47;6311867;20;3627466;-44
2021/12/31 03:06:18;;;;;;;;;67.00;53.33;;;;;5.61;100.00;100021.31;6315809;20;3627298;-43
2021/12/31 03:08:48;;;;;;;;;71.00;53.00;;;;;5.64;100.00;100022.09;6309232;20;3631489;-45
2021/12/31 03:11:20;;;;;;;;;64.67;50.33;;;;;5.52;100.00;100025.19;6310358;20;3646149;-45
2021/12/31 03:13:52;;;;;;;;;76.67;55.33;;;;;5.57;100.00;100025.88;6310418;20;3641975;-42
2021/12/31 03:16:23;;;;;;;;;70.33;55.00;;;;;5.51;100.00;100015.47;6309265;20;3607934;-45
2021/12/31 03:18:55;;;;;;;;;68.33;54.67;;;;;5.55;100.00;100016.22;6313450;20;2876569;-43
2021/12/31 03:21:24;;;;;;;;;72.67;56.67;;;;;5.44;100.00;100013.94;6310750;20;3613827;-44
2021/12/31 03:23:55;;;;;;;;;70.33;54.33;;;;;5.55;100.00;100016.22;6314428;20;3629495;-43
2021/12/31 03:26:24;;;;;;;;;67.00;50.33;;;;;5.45;100.00;100021.88;6314418;20;3636745;-45
2021/12/31 03:28:54;;;;;;;;;68.67;51.67;;;;;5.45;100.00;100021.88;6314454;20;3640912;-44
2021/12/31 03:31:23;;;;;;;;;71.67;55.67;;;;;5.47;100.00;100020.00;6311336;20;3626282;-43
2021/12/31 03:33:53;;;;;;;;;68.00;54.00;;;;;5.43;100.00;100026.38;6313662;20;3625304;-44
2021/12/31 03:36:23;;;;;;;;;72.33;54.33;;;;;5.41;100.00;100016.72;6312606;20;3641880;-44
2021/12/31 03:38:52;;;;;;;;;67.67;50.33;;;;;5.38;100.00;100031.00;6314669;20;3633523;-44
2021/12/31 03:41:22;;;;;;;;;75.67;55.00;;;;;5.44;100.00;100041.41;6310641;20;3643967;-44
2021/12/31 03:43:51;;;;;;;;;76.00;57.00;;;;;5.45;100.00;100043.19;6314689;20;3639958;-43
2021/12/31 03:46:22;;;;;;;;;78.33;56.33;;;;;5.29;100.00;100047.28;6311870;20;3658633;-45
2021/12/31 03:48:52;;;;;;;;;73.33;53.00;;;;;5.25;100.00;100040.31;6282059;20;3647091;-43
2021/12/31 03:51:21;;;;;;;;;73.00;57.00;;;;;5.33;100.00;100054.25;6278611;20;3640864;-44
2021/12/31 03:53:51;;;;;;;;;66.67;52.00;;;;;5.32;100.00;100041.88;6313764;20;3616902;-44
2021/12/31 03:56:25;;;;;;;;;70.00;51.67;;;;;5.44;100.00;100057.41;6312245;20;3626269;-44
2021/12/31 03:58:55;;;;;;;;;73.00;55.33;;;;;5.25;100.00;100050.97;6310994;20;3640862;-44
2021/12/31 04:01:28;;;;;;;;;72.67;55.67;;;;;5.24;100.00;100054.56;6310519;20;3617969;-44
2021/12/31 04:03:58;;;;;;;;;74.00;55.00;;;;;5.34;100.00;100045.31;6312095;20;3630464;-44
2021/12/31 04:06:27;;;;;;;;;78.67;59.00;;;;;5.26;100.00;100042.06;6312607;20;3644099;-44
2021/12/31 04:08:57;;;;;;;;;70.67;53.33;;;;;5.32;100.00;100035.66;6314012;20;3627357;-45
2021/12/31 04:11:27;;;;;;;;;73.00;54.33;;;;;5.21;100.00;100022.72;6308991;20;3647122;-46
2021/12/31 04:13:56;;;;;;;;;77.33;56.00;;;;;5.17;100.00;100010.44;6311274;20;3646077;-43
2021/12/31 04:16:26;;;;;;;;;81.67;60.33;;;;;5.19;100.00;100008.59;6277322;20;3637815;-44
2021/12/31 04:18:56;;;;;;;;;71.33;52.67;;;;;5.16;100.00;100004.25;6313780;20;3645039;-45
2021/12/31 04:21:27;;;;;;;;;77.33;56.67;;;;;5.13;100.00;100003.47;6309847;20;3639877;-45
2021/12/31 04:26:35;;;;;;;;;68.00;53.33;;;;;5.03;100.00;100000.28;6312501;20;3630525;-45
2021/12/31 04:29:05;;;;;;;;;74.33;56.33;;;;;4.99;100.00;100007.47;6312191;20;3646094;-45
2021/12/31 04:31:34;;;;;;;;;68.33;52.00;;;;;5.02;100.00;99996.72;6311123;20;3633608;-44
2021/12/31 04:34:06;;;;;;;;;70.67;52.00;;;;;4.95;100.00;100000.53;6309296;20;3645101;-46
2021/12/31 04:36:35;;;;;;;;;62.00;52.00;;;;;4.99;100.00;99999.50;6311111;20;2858737;-45
2021/12/31 04:39:06;;;;;;;;;72.00;54.00;;;;;4.88;100.00;100009.63;6280344;20;2876445;-45
2021/12/31 04:41:35;;;;;;;;;74.33;53.67;;;;;4.90;100.00;100007.78;6310744;20;3651292;-44
2021/12/31 04:44:05;;;;;;;;;79.00;56.00;;;;;4.87;100.00;100010.56;6312295;20;3649234;-45
2021/12/31 04:46:34;;;;;;;;;73.67;54.67;;;;;4.98;100.00;100011.06;6312004;20;3638757;-45
2021/12/31 04:49:06;;;;;;;;;71.33;56.33;;;;;4.79;100.00;100010.81;6311937;20;2872261;-44
2021/12/31 04:51:40;;;;;;;;;73.00;51.67;;;;;4.79;100.00;100017.88;6309398;20;3624189;-43
2021/12/31 04:54:14;;;;;;;;;77.33;54.33;;;;;4.78;100.00;100018.81;6312921;20;3634638;-45
2021/12/31 04:56:45;;;;;;;;;269.00;190.75;;;;;4.71;100.00;100022.59;6311011;20;3710654;-43
2021/12/31 04:59:15;;;;;;;;;103.33;79.67;;;;;4.92;100.00;100027.22;6312458;20;3671096;-43
2021/12/31 05:01:44;;;;;;;;;88.33;66.00;;;;;4.85;100.00;100025.69;6277193;20;3660644;-43
2021/12/31 05:04:15;;;;;;;;;86.00;61.67;;;;;4.84;100.00;100023.94;6310169;20;3659691;-44
2021/12/31 05:06:47;;;;;;;;;78.00;60.33;;;;;4.87;100.00;100025.63;6277411;20;2869101;-43
2021/12/31 05:09:17;;;;;;;;;67.33;53.67;;;;;4.85;100.00;100015.06;6312118;20;3607533;-44
2021/12/31 05:11:47;;;;;;;;;70.33;54.00;;;;;4.73;100.00;100015.44;6308037;20;3628378;-43
2021/12/31 05:14:18;;;;;;;;;70.67;55.33;;;;;4.78;100.00;100011.72;6312005;20;3630016;-43
2021/12/31 05:16:48;;;;;;;;;72.00;56.00;;;;;4.76;100.00;100010.03;6307292;20;2881662;-44
2021/12/31 05:19:17;;;;;;;;;67.00;52.33;;;;;4.78;100.00;100018.81;6311085;20;3637759;-44
2021/12/31 05:21:47;;;;;;;;;63.00;48.67;;;;;4.82;100.00;100015.16;6308389;20;3628419;-45
2021/12/31 05:24:17;;;;;;;;;68.00;51.67;;;;;4.78;100.00;100013.50;6311241;20;3615896;-44
2021/12/31 05:26:46;;;;;;;;;66.00;54.00;;;;;4.67;100.00;100020.97;6309516;20;3626419;-44
2021/12/31 05:29:16;;;;;;;;;66.67;54.00;;;;;4.71;100.00;100017.28;6310513;20;3629425;-44
2021/12/31 05:31:45;;;;;;;;;71.33;55.33;;;;;4.75;100.00;100013.59;6307269;20;3642981;-44
2021/12/31 05:34:15;;;;;;;;;70.00;55.00;;;;;4.81;100.00;100008.06;6310123;20;3622287;-45
2021/12/31 05:36:44;;;;;;;;;71.00;54.50;;;;;4.78;100.00;100014.38;6312026;20;3632576;-45
2021/12/31 05:39:15;;;;;;;;;77.33;58.00;;;;;4.77;100.00;100015.31;6309304;20;3640845;-44
2021/12/31 05:41:44;;;;;;;;;78.33;58.00;;;;;4.70;100.00;100018.22;6308791;20;3643975;-44
2021/12/31 05:44:14;;;;;;;;;81.67;58.00;;;;;4.68;100.00;100026.22;6309500;20;3650219;-44
2021/12/31 05:46:48;;;;;;;;;71.00;57.00;;;;;4.77;100.00;100023.28;6309325;20;3629373;-45
2021/12/31 05:49:19;;;;;;;;;71.33;56.00;;;;;4.71;100.00;100025.25;6316792;20;2876396;-44
2021/12/31 05:51:50;;;;;;;;;75.33;58.67;;;;;4.70;100.00;100023.53;6312478;20;3627533;-45
2021/12/31 05:54:19;;;;;;;;;72.00;58.00;;;;;4.70;100.00;100032.38;6311729;20;3625242;-43
2021/12/31 05:56:49;;;;;;;;;69.67;56.00;;;;;4.75;100.00;100045.53;6315957;20;3635623;-43
2021/12/31 05:59:19;;;;;;;;;68.67;54.00;;;;;4.57;100.00;100058.47;6314611;20;2874254;-43
2021/12/31 06:01:48;;;;;;;;;65.00;53.00;;;;;4.54;100.00;100053.25;6312262;20;2873420;-44
2021/12/31 06:04:18;;;;;;;;;75.00;57.00;;;;;4.41;100.00;100054.56;6314698;20;3636730;-44
2021/12/31 06:06:48;;;;;;;;;77.67;55.00;;;;;4.51;100.00;100056.00;6315735;20;3647217;-47
2021/12/31 06:09:18;;;;;;;;;79.00;60.33;;;;;4.41;100.00;100049.25;6313673;20;3631515;-43
2021/12/31 06:11:48;;;;;;;;;75.67;57.00;;;;;4.44;100.00;100050.94;6313763;20;3632581;-44
2021/12/31 06:14:17;;;;;;;;;76.67;58.00;;;;;4.56;100.00;100053.22;6313784;20;3636962;-44
2021/12/31 06:16:48;;;;;;;;;71.00;52.67;;;;;4.46;100.00;100060.59;6311345;20;3633604;-44
2021/12/31 06:19:16;;;;;;;;;37.00;24.00;;;;;4.42;100.00;100053.63;6314319;20;2850271;-44
2021/12/31 06:21:46;;;;;;;;;69.33;51.00;;;;;4.40;100.00;100055.47;6281864;20;3636745;-44
2021/12/31 06:24:16;;;;;;;;;67.00;51.00;;;;;4.46;100.00;100055.28;6314463;20;3612766;-45
2021/12/31 06:26:45;;;;;;;;;66.00;52.00;;;;;4.49;100.00;100063.16;6314901;20;2872226;-45
2021/12/31 06:29:15;;;;;;;;;72.00;55.00;;;;;4.51;100.00;100071.97;6314194;20;3643987;-44
2021/12/31 06:31:45;;;;;;;;;79.00;59.00;;;;;4.47;100.00;100078.28;6312811;20;3628483;-44
2021/12/31 06:34:14;;;;;;;;;75.33;58.00;;;;;4.47;100.00;100078.28;6314033;20;3625266;-43
2021/12/31 06:36:44;;;;;;;;;79.33;59.33;;;;;4.36;100.00;100075.09;6312156;20;3653565;-44
2021/12/31 06:39:14;;;;;;;;;77.67;59.33;;;;;4.47;100.00;100072.97;6283034;20;3632524;-45
2021/12/31 06:41:43;;;;;;;;;75.00;59.33;;;;;4.29;100.00;100068.19;6313849;20;2878451;-45
2021/12/31 06:44:13;;;;;;;;;73.00;57.67;;;;;4.37;100.00;100072.41;6313048;20;3631485;-43
2021/12/31 06:46:43;;;;;;;;;76.00;57.00;;;;;4.25;100.00;100066.56;6312807;20;3646160;-43
2021/12/31 06:49:13;;;;;;;;;72.00;55.33;;;;;4.34;100.00;100076.91;6315164;20;3632511;-45
2021/12/31 06:51:42;;;;;;;;;76.33;59.33;;;;;4.48;100.00;100080.03;6310359;20;3623138;-44
2021/12/31 06:54:12;;;;;;;;;76.33;58.00;;;;;4.53;100.00;100083.44;6313914;20;3627364;-44
2021/12/31 06:56:42;;;;;;;;;74.33;57.33;;;;;4.54;100.00;100078.97;6314799;20;2882707;-45
2021/12/31 06:59:11;;;;;;;;;79.00;58.67;;;;;4.44;100.00;100083.69;6313926;20;3632533;-44
2021/12/31 07:01:41;;;;;;;;;74.67;56.67;;;;;4.50;100.00;100088.84;6312525;20;3645001;-44
2021/12/31 07:04:11;;;;;;;;;78.67;62.33;;;;;4.40;100.00;100082.94;6315057;20;2881599;-43
2021/12/31 07:06:41;;;;;;;;;74.67;57.33;;;;;4.36;100.00;100088.38;6314585;20;3640249;-44
2021/12/31 07:09:10;;;;;;;;;76.00;56.67;;;;;4.27;100.00;100096.63;6314327;20;3671094;-43
2021/12/31 07:11:40;;;;;;;;;91.00;66.00;;;;;4.47;100.00;100088.06;6312397;20;3655455;-44
2021/12/31 07:14:10;;;;;;;;;238.75;188.25;;;;;4.62;100.00;100099.09;6281735;20;4459649;-44
2021/12/31 07:16:39;;;;;;;;;118.75;93.50;;;;;4.79;100.00;100101.25;6314398;20;4454382;-46
2021/12/31 07:19:10;;;;;;;;;159.00;119.75;;;;;4.82;100.00;100108.25;6279929;20;4494032;-45
2021/12/31 07:21:41;;;;;;;;;136.00;105.75;;;;;5.05;100.00;100108.41;6278372;20;4490958;-44
2021/12/31 07:24:09;;;;;;;;;160.50;127.00;;;;;4.96;100.00;100107.81;6308433;20;1956614;-44
2021/12/31 07:26:38;;;;;;;;;118.75;91.50;;;;;5.11;100.00;100107.34;6282778;20;4445028;-44
2021/12/31 07:29:08;;;;;;;;;111.00;94.67;;;;;5.12;100.00;100110.88;6313219;20;3683539;-44
2021/12/31 07:31:38;;;;;;;;;97.67;81.67;;;;;5.22;100.00;100110.50;6276843;20;3665890;-44
2021/12/31 07:34:08;;;;;;;;;107.00;88.00;;;;;5.30;100.00;100107.59;6280042;20;3688822;-44
2021/12/31 07:36:37;;;;;;;;;100.33;87.00;;;;;5.33;100.00;100118.13;6280879;20;3695058;-44
2021/12/31 07:39:10;;;;;;;;;96.50;75.50;;;;;5.32;100.00;100116.41;6281372;20;3687850;-44
2021/12/31 07:41:41;;;;;;;;;95.67;76.33;;;;;5.60;100.00;100104.81;6277077;20;3682582;-44
2021/12/31 07:44:10;;;;;;;;;74.67;58.00;;;;;5.80;100.00;100115.66;6282695;20;2889459;-45
2021/12/31 07:46:43;;;;;;;;;76.00;56.00;;;;;6.02;100.00;100112.25;6311478;20;3647117;-44
2021/12/31 07:49:13;;;;;;;;;72.00;56.33;;;;;6.11;100.00;100122.59;6279802;20;3629461;-42
2021/12/31 07:51:43;;;;;;;;;70.33;53.00;;;;;6.14;100.00;100117.16;6312475;20;3638875;-43
2021/12/31 07:54:12;;;;;;;;;67.00;52.33;;;;;6.08;100.00;100117.34;6313338;20;3626258;-44
2021/12/31 07:56:42;;;;;;;;;70.33;52.67;;;;;6.17;100.00;100117.03;6313665;20;3616992;-44
2021/12/31 07:59:12;;;;;;;;;70.33;54.00;;;;;6.19;100.00;100120.53;6311660;20;3647263;-43
2021/12/31 08:01:41;;;;;;;;;66.33;52.00;;;;;6.15;100.00;100124.22;6308953;20;3638753;-44
2021/12/31 08:04:11;;;;;;;;;72.00;57.00;;;;;6.23;100.00;100122.13;6312097;20;3628393;-43
2021/12/31 08:06:40;;;;;;;;;75.67;58.67;;;;;6.31;100.00;100122.72;6313162;20;3620014;-44
2021/12/31 08:09:10;;;;;;;;;76.33;58.67;;;;;6.32;100.00;100121.81;6312122;20;3637750;-44
2021/12/31 08:11:41;;;;;;;;;75.00;58.67;;;;;6.51;100.00;100116.66;6278434;20;3632530;-45
2021/12/31 08:14:10;;;;;;;;;73.67;58.00;;;;;6.63;100.00;100117.97;6311501;20;3619396;-45
2021/12/31 08:16:40;;;;;;;;;69.67;54.33;;;;;6.93;100.00;100110.56;6311463;20;3616900;-44
2021/12/31 08:19:10;;;;;;;;;71.00;55.33;;;;;7.14;100.00;100116.84;6313066;20;3637813;-45
2021/12/31 08:21:40;;;;;;;;;76.00;57.33;;;;;7.38;100.00;100114.09;6310804;20;3647113;-43
2021/12/31 08:24:10;;;;;;;;;71.67;57.00;;;;;7.50;100.00;100113.56;6312396;20;3639849;-44
2021/12/31 08:26:39;;;;;;;;;72.00;57.00;;;;;7.63;100.00;100104.09;6314545;20;3635765;-43
2021/12/31 08:29:12;;;;;;;;;73.50;57.00;;;;;7.71;100.00;100109.13;6313013;20;2822232;-46
2021/12/31 08:31:42;;;;;;;;;78.33;58.33;;;;;7.87;100.00;100112.00;6309861;20;3638912;-45
2021/12/31 08:34:12;;;;;;;;;76.00;61.00;;;;;7.99;100.00;100111.47;6310374;20;2741931;-43
2021/12/31 08:36:40;;;;;;;;;72.00;56.00;;;;;8.05;100.00;100116.53;6314633;20;3637880;-43
2021/12/31 08:39:10;;;;;;;;;79.67;58.33;;;;;8.12;100.00;100117.16;6282954;20;3639854;-44
2021/12/31 08:41:40;;;;;;;;;86.33;61.33;;;;;8.26;100.00;100108.50;6279278;20;3651273;-44
2021/12/31 08:44:17;;;;;;;;;79.67;61.67;;;;;8.35;100.00;100111.63;6279212;20;3624230;-44
2021/12/31 08:46:48;;;;;;;;;74.67;58.00;;;;;8.92;100.00;100113.47;6310155;20;3633728;-44
2021/12/31 08:49:19;;;;;;;;;59.67;47.00;;;;;9.71;100.00;100124.75;6310594;20;3632695;-44
2021/12/31 08:51:48;;;;;;;;;48.67;39.67;;;;;10.05;100.00;100112.28;6312962;20;3606491;-43
2021/12/31 08:54:17;;;;;;;;;54.00;43.00;;;;;10.39;100.00;100115.88;6283183;20;2850280;-44
2021/12/31 08:56:45;;;;;;;;;37.33;33.33;;;;;10.45;100.00;100112.88;6286438;20;3578411;-44
2021/12/31 08:59:19;;;;;;;;;32.67;30.67;;;;;10.51;100.00;100107.19;6280443;20;3605414;-45
2021/12/31 09:01:48;;;;;;;;;39.67;32.67;;;;;10.72;100.00;100106.00;6314213;20;3611083;-46
2021/12/31 09:04:16;;;;;;;;;27.67;26.67;;;;;10.73;100.00;100110.41;6286768;20;3599328;-44
2021/12/31 09:06:45;;;;;;;;;26.50;23.50;;;;;10.81;100.00;100099.22;6283305;20;2845131;-44
2021/12/31 09:09:15;;;;;;;;;40.00;34.33;;;;;11.05;100.00;100096.97;6278826;20;2851379;-45
2021/12/31 09:11:43;;;;;;;;;53.67;44.67;;;;;11.38;100.00;100107.63;6314601;20;3587728;-44
2021/12/31 09:14:15;;;;;;;;;42.00;35.67;;;;;11.38;100.00;100099.56;6281799;20;2864008;-46
2021/12/31 09:16:45;;;;;;;;;34.00;27.67;;;;;11.65;100.00;100099.75;6317235;20;3606472;-45
2021/12/31 09:19:14;;;;;;;;;31.00;29.33;;;;;11.45;100.00;100105.44;6285341;20;3606583;-45
2021/12/31 09:21:43;;;;;;;;;23.50;22.00;;;;;11.78;100.00;100109.78;6278903;20;2831602;-44
2021/12/31 09:24:13;;;;;;;;;35.33;29.33;;;;;11.65;100.00;100115.88;6288612;20;2864887;-45
2021/12/31 09:26:42;;;;;;;;;33.67;30.33;;;;;11.74;100.00;100106.41;6318794;20;3595023;-45
2021/12/31 09:29:16;;;;;;;;;34.00;29.00;;;;;11.90;100.00;100108.19;6289300;20;3607607;-45
2021/12/31 09:31:46;;;;;;;;;39.33;33.67;;;;;11.97;100.00;100104.19;6316939;20;2847108;-48
2021/12/31 09:34:15;;;;;;;;;33.33;26.33;;;;;12.18;100.00;100107.41;6320681;20;3618980;-45
2021/12/31 09:36:44;;;;;;;;;35.33;29.33;;;;;12.30;100.00;100112.03;6290307;20;3621037;-45
2021/12/31 09:39:13;;;;;;;;;28.00;23.33;;;;;12.22;100.00;100114.34;6283914;20;2854567;-45
2021/12/31 09:41:44;;;;;;;;;33.67;27.67;;;;;12.32;100.00;100102.00;6315954;20;3606478;-45
2021/12/31 09:44:15;;;;;;;;;34.33;32.67;;;;;12.00;100.00;100110.25;6290234;20;3581507;-45
2021/12/31 09:46:44;;;;;;;;;33.00;29.33;;;;;12.12;100.00;100097.88;6288527;20;3600242;-45
2021/12/31 09:49:13;;;;;;;;;21.50;19.00;;;;;12.38;100.00;100108.88;6287304;20;2833731;-46
2021/12/31 09:51:43;;;;;;;;;31.67;27.67;;;;;12.66;100.00;100107.97;6282171;20;3604362;-44
2021/12/31 09:54:12;;;;;;;;;32.33;29.67;;;;;12.82;100.00;100106.06;6317971;20;3603049;-44
2021/12/31 09:56:42;;;;;;;;;25.00;22.00;;;;;12.66;100.00;100102.59;6288178;20;2830553;-45
2021/12/31 09:59:11;;;;;;;;;44.00;34.00;;;;;12.65;100.00;100098.19;6286476;20;3616874;-47
2021/12/31 10:01:52;;;;;;;;;48.33;38.33;;;;;12.85;100.00;100108.56;6318084;20;3599272;-45
2021/12/31 10:04:22;;;;;;;;;25.00;19.00;;;;;13.35;100.00;100100.84;6287064;20;2839850;-44
2021/12/31 10:07:11;;;;;;;;;17.50;15.00;;;;;13.12;100.00;100095.09;6294183;20;2802380;-43
2021/12/31 10:09:40;;;;;;;;;24.67;22.67;;;;;13.02;100.00;100087.72;6292769;20;3590219;-42
2021/12/31 10:12:15;;;;;;;;;35.00;30.33;;;;;13.30;98.77;100090.38;6284776;20;3606513;-42
2021/12/31 10:14:43;;;;;;;;;38.33;34.00;;;;;13.09;97.88;100075.56;6321742;20;3604395;-42
2021/12/31 10:17:12;;;;;;;;;12.67;12.67;;;;;13.38;98.13;100079.06;6283733;20;2800484;-42
2021/12/31 10:19:56;;;;;;;;;16.33;15.00;;;;;13.50;97.36;100082.75;6318388;20;3530462;-42
2021/12/31 10:22:24;;;;;;;;;12.00;12.00;;;;;13.46;97.18;100086.66;6289679;20;2788802;-42
2021/12/31 10:24:53;;;;;;;;;29.67;24.67;;;;;13.42;97.67;100080.56;6287614;20;2857586;-42
2021/12/31 10:27:23;;;;;;;;;46.33;36.00;;;;;13.64;95.83;100080.00;6320369;20;3602468;-42
2021/12/31 10:30:02;;;;;;;;;48.67;37.67;;;;;13.69;96.09;100069.78;6286432;20;3604404;-42
2021/12/31 10:32:36;;;;;;;;;23.33;17.00;;;;;13.64;94.27;100080.00;6319400;20;3561771;-42
2021/12/31 10:35:16;;;;;;;;;23.33;21.67;;;;;13.74;94.38;100081.09;6321916;20;3569997;-42
2021/12/31 10:38:00;;;;;;;;;12.00;12.00;;;;;14.00;92.50;100086.53;6319690;20;2494468;-42
2021/12/31 10:40:45;;;;;;;;;16.00;12.33;;;;;13.98;92.44;100089.34;6285161;20;3517946;-46
2021/12/31 10:43:23;;;;;;;;;9.00;9.00;;;;;13.91;92.35;100081.78;6288680;20;2748178;-42
2021/12/31 10:46:03;;;;;;;;;11.67;11.00;;;;;14.18;91.07;100073.59;6286439;20;3507686;-41
2021/12/31 10:48:45;;;;;;;;;7.71;7.71;;;;;14.14;91.26;100072.94;6361543;20;3437730;-42
2021/12/31 10:51:35;;;;;;;;;3.00;3.00;;;;;13.87;91.30;100081.09;6320021;20;2754449;-43
2021/12/31 10:54:37;;;;;;;;;21.17;16.83;;;;;13.99;90.58;100074.00;6312874;20;3578336;-41
2021/12/31 10:57:06;;;;;;;;;21.00;16.67;;;;;14.21;89.60;100079.63;6285842;20;3561683;-42
2021/12/31 10:59:37;;;;;;;;;15.50;11.00;;;;;14.08;89.56;100083.31;6289876;20;2785774;-40
2021/12/31 11:02:06;;;;;;;;;22.50;21.50;;;;;14.18;88.90;100090.66;6287496;20;2834677;-41
2021/12/31 11:04:35;;;;;;;;;7.00;5.00;;;;;13.99;89.69;100096.47;6289830;20;2748175;-43
2021/12/31 11:07:04;;;;;;;;;19.33;13.33;;;;;14.14;88.67;100099.06;6286184;20;3548120;-40
2021/12/31 11:09:35;;;;;;;;;11.00;10.00;;;;;14.12;89.09;100091.09;6320331;20;2783600;-41
2021/12/31 11:12:04;;;;;;;;;5.00;5.00;;;;;14.49;87.62;100083.09;6288359;20;2741916;-41
2021/12/31 11:14:33;;;;;;;;;10.67;8.33;;;;;14.26;87.60;100080.16;6284135;20;2777382;-42
2021/12/31 11:17:04;;;;;;;;;4.60;4.60;;;;;14.27;87.32;100081.91;6337933;20;2745074;-43